Terminal Aerodrome Forecast
Issued by NWS Corpus Christi, TX

Home | Current Version | Previous Version | Text Only | Print | Product List | Glossary On
Versions: 1 2 3 4 5 6 7 8 9 10 11 12 13 14
000
FTUS44 KCRP 300520
TAFCRP
TAF
KCRP 300520Z 3006/3106 16006KT P6SM SCT025
      TEMPO 3012/3015 BKN025
     FM301500 15012KT P6SM SCT025
     FM301800 12014G19KT P6SM SCT035
     FM310200 13005KT P6SM SCT025=

USA.gov is the U.S. government's official web portal to all federal, state and local government web resources and services.